Time;durP1;ratioP1;P1;durP2;ratioP2;P2;SDS_P1;SDS_P2;PMS_P1;PMS_P2;Temp;Humidity;BMP_temperature;BMP_pressure;BME280_temperature;BME280_humidity;BME280_pressure;Samples;Min_cycle;Max_cycle;Signal;HPM_P1;HPM_P2
2022/03/29 14:23:51;;;;;;;19.57;7.73;;;;;;;;;;7392271;19;21021;-79
2022/03/29 14:26:18;;;;;;;17.33;7.50;;;;;;;;;;7385768;19;20645;-78
2022/03/29 14:28:44;;;;;;;23.73;7.90;;;;;;;;;;7387672;19;20149;-78
2022/03/29 14:31:10;;;;;;;16.93;7.27;;;;;;;;;;7385039;19;20467;-78
2022/03/29 14:33:36;;;;;;;23.30;8.10;;;;;;;;;;7387797;19;20128;-78
2022/03/29 14:36:02;;;;;;;19.13;7.50;;;;;;;;;;7391865;19;20598;-78
2022/03/29 14:38:28;;;;;;;22.33;8.57;;;;;;;;;;7388925;19;20120;-78
2022/03/29 14:40:54;;;;;;;16.17;8.57;;;;;;;;;;7388940;19;20136;-78
2022/03/29 14:43:20;;;;;;;13.43;7.17;;;;;;;;;;7381171;19;20145;-78
2022/03/29 14:45:48;;;;;;;13.93;6.83;;;;;;;;;;7389092;19;20153;-78
2022/03/29 14:48:15;;;;;;;15.57;7.27;;;;;;;;;;7390093;19;20124;-79
2022/03/29 14:50:42;;;;;;;16.43;7.27;;;;;;;;;;7386221;19;20764;-80
2022/03/29 14:53:08;;;;;;;19.70;7.83;;;;;;;;;;7386006;19;20652;-82
2022/03/29 14:55:36;;;;;;;15.37;6.70;;;;;;;;;;7386373;19;20129;-79
2022/03/29 14:58:02;;;;;;;14.50;7.13;;;;;;;;;;7388298;19;20163;-81
2022/03/29 15:00:28;;;;;;;27.73;7.83;;;;;;;;;;7384905;19;20204;-79
2022/03/29 15:02:54;;;;;;;21.60;7.53;;;;;;;;;;7384856;19;20906;-80
2022/03/29 15:05:20;;;;;;;20.13;6.70;;;;;;;;;;7381789;19;20148;-79
2022/03/29 15:07:47;;;;;;;16.00;6.40;;;;;;;;;;7381435;19;20461;-79
2022/03/29 15:10:14;;;;;;;19.03;7.30;;;;;;;;;;7382949;19;20152;-78
2022/03/29 15:12:40;;;;;;;21.47;6.57;;;;;;;;;;7381058;19;20697;-79
2022/03/29 15:15:06;;;;;;;18.00;6.93;;;;;;;;;;7382025;19;20129;-79
2022/03/29 15:17:32;;;;;;;18.20;7.30;;;;;;;;;;7378772;19;20140;-79
2022/03/29 15:19:59;;;;;;;18.00;6.40;;;;;;;;;;7386175;19;20136;-80
2022/03/29 15:22:26;;;;;;;18.73;7.13;;;;;;;;;;7379348;19;20196;-79
2022/03/29 15:24:52;;;;;;;20.47;7.03;;;;;;;;;;7382980;19;20160;-79
2022/03/29 15:27:19;;;;;;;17.60;6.00;;;;;;;;;;7397082;19;20161;-84
2022/03/29 15:29:46;;;;;;;16.50;6.17;;;;;;;;;;7422991;19;20158;-82
2022/03/29 15:32:12;;;;;;;21.80;7.93;;;;;;;;;;7421506;19;20685;-81
2022/03/29 15:34:38;;;;;;;17.67;6.93;;;;;;;;;;7422483;19;20141;-82
2022/03/29 15:37:08;;;;;;;20.77;6.87;;;;;;;;;;7424180;19;20142;-84
2022/03/29 15:39:35;;;;;;;19.67;6.70;;;;;;;;;;7398263;19;20678;-78
2022/03/29 15:42:01;;;;;;;23.00;6.50;;;;;;;;;;7391189;19;20160;-81
2022/03/29 15:44:27;;;;;;;22.10;5.93;;;;;;;;;;7387039;19;20129;-79
2022/03/29 15:46:53;;;;;;;19.30;5.90;;;;;;;;;;7379574;19;20196;-78
2022/03/29 15:49:20;;;;;;;22.83;6.87;;;;;;;;;;7384779;19;20150;-78
2022/03/29 15:51:46;;;;;;;18.83;6.00;;;;;;;;;;7380395;19;20169;-78
2022/03/29 15:54:12;;;;;;;13.63;5.97;;;;;;;;;;7386594;19;20189;-78
2022/03/29 15:56:38;;;;;;;24.23;5.73;;;;;;;;;;7383508;19;20142;-78
2022/03/29 15:59:04;;;;;;;24.60;5.80;;;;;;;;;;7383718;19;20144;-78
2022/03/29 16:01:30;;;;;;;26.67;6.17;;;;;;;;;;7383479;19;20161;-78
2022/03/29 16:03:58;;;;;;;20.47;6.57;;;;;;;;;;7377442;19;20226;-78
2022/03/29 16:06:25;;;;;;;18.43;8.10;;;;;;;;;;7388179;19;20596;-78
2022/03/29 16:08:52;;;;;;;20.90;7.30;;;;;;;;;;7374030;19;20201;-78
2022/03/29 16:11:18;;;;;;;29.10;6.67;;;;;;;;;;7373921;19;20605;-78
2022/03/29 16:13:46;;;;;;;20.67;6.53;;;;;;;;;;7375858;19;21512;-79
2022/03/29 16:16:12;;;;;;;23.83;6.47;;;;;;;;;;7385588;19;20159;-78
2022/03/29 16:18:38;;;;;;;15.20;7.40;;;;;;;;;;7377842;19;20125;-78
2022/03/29 16:21:04;;;;;;;18.40;6.13;;;;;;;;;;7390339;19;20129;-78
2022/03/29 16:23:31;;;;;;;15.80;6.00;;;;;;;;;;7386734;19;20156;-79
2022/03/29 16:25:57;;;;;;;19.07;5.73;;;;;;;;;;7386444;19;20136;-79
2022/03/29 16:28:23;;;;;;;20.73;5.90;;;;;;;;;;7383165;19;20133;-78
2022/03/29 16:30:49;;;;;;;18.90;6.70;;;;;;;;;;7385237;19;20563;-81
2022/03/29 16:33:15;;;;;;;23.33;6.53;;;;;;;;;;7381761;19;20153;-79
2022/03/29 16:35:42;;;;;;;17.57;5.93;;;;;;;;;;7383747;19;20121;-79
2022/03/29 16:38:08;;;;;;;25.73;5.93;;;;;;;;;;7375815;19;20157;-78
2022/03/29 16:40:37;;;;;;;24.37;6.27;;;;;;;;;;7384877;19;20137;-78
2022/03/29 16:43:06;;;;;;;19.30;6.20;;;;;;;;;;7386595;19;20157;-80
2022/03/29 16:45:32;;;;;;;26.70;6.67;;;;;;;;;;7389372;19;20183;-79
2022/03/29 16:47:58;;;;;;;24.40;6.50;;;;;;;;;;7388396;19;20157;-78
2022/03/29 16:50:24;;;;;;;16.63;5.77;;;;;;;;;;7388260;19;20139;-79
2022/03/29 16:52:54;;;;;;;21.57;6.17;;;;;;;;;;7387123;19;20208;-79
2022/03/29 16:55:20;;;;;;;21.73;6.03;;;;;;;;;;7381417;19;20153;-79
2022/03/29 16:57:47;;;;;;;17.17;5.17;;;;;;;;;;7385461;19;20250;-79
2022/03/29 17:00:13;;;;;;;23.07;6.17;;;;;;;;;;7381676;19;20192;-81
2022/03/29 17:02:39;;;;;;;28.80;5.87;;;;;;;;;;7375935;19;20168;-79
2022/03/29 17:05:06;;;;;;;21.60;6.23;;;;;;;;;;7375911;19;20662;-78
2022/03/29 17:07:32;;;;;;;23.73;4.97;;;;;;;;;;7386951;19;20132;-78
2022/03/29 17:09:57;;;;;;;15.03;5.30;;;;;;;;;;7390081;19;20129;-79
2022/03/29 17:12:26;;;;;;;20.33;6.03;;;;;;;;;;7385439;19;20144;-78
2022/03/29 17:14:52;;;;;;;25.10;6.07;;;;;;;;;;7390676;19;20144;-80
2022/03/29 17:17:18;;;;;;;23.33;5.93;;;;;;;;;;7364447;19;21297;-80
2022/03/29 17:19:44;;;;;;;32.50;7.30;;;;;;;;;;7385148;19;20144;-79
2022/03/29 17:22:10;;;;;;;22.07;5.47;;;;;;;;;;7380387;19;20212;-80
2022/03/29 17:24:36;;;;;;;27.77;7.10;;;;;;;;;;7387833;19;20148;-81
2022/03/29 17:27:02;;;;;;;23.57;5.77;;;;;;;;;;7379886;19;20549;-78
2022/03/29 17:29:28;;;;;;;25.23;6.83;;;;;;;;;;7377678;19;20164;-78
2022/03/29 17:31:56;;;;;;;29.47;6.20;;;;;;;;;;7385477;19;20169;-77
2022/03/29 17:34:22;;;;;;;29.70;6.87;;;;;;;;;;7382298;19;20164;-78
2022/03/29 17:36:48;;;;;;;21.57;5.50;;;;;;;;;;7388609;19;20129;-78
2022/03/29 17:39:16;;;;;;;26.53;5.53;;;;;;;;;;7386733;19;20176;-79
2022/03/29 17:41:42;;;;;;;19.87;5.37;;;;;;;;;;7385946;19;20145;-78
2022/03/29 17:44:09;;;;;;;22.63;5.20;;;;;;;;;;7386184;19;20117;-78
2022/03/29 17:46:35;;;;;;;31.50;5.70;;;;;;;;;;7378547;19;20133;-78
2022/03/29 17:49:02;;;;;;;22.30;5.67;;;;;;;;;;7388229;19;20229;-78
2022/03/29 17:51:28;;;;;;;27.30;6.53;;;;;;;;;;7385181;19;22761;-78
2022/03/29 17:53:54;;;;;;;20.10;5.00;;;;;;;;;;7381923;19;20790;-78
2022/03/29 17:56:21;;;;;;;31.37;6.87;;;;;;;;;;7376306;19;20145;-77
2022/03/29 17:58:47;;;;;;;27.33;6.83;;;;;;;;;;7377528;19;20153;-78
2022/03/29 18:01:13;;;;;;;22.73;5.70;;;;;;;;;;7379881;19;20644;-78
2022/03/29 18:03:42;;;;;;;39.17;6.23;;;;;;;;;;7382721;19;20144;-78
2022/03/29 18:06:08;;;;;;;28.30;6.17;;;;;;;;;;7360659;19;20264;-78
2022/03/29 18:08:34;;;;;;;26.30;5.87;;;;;;;;;;7369981;19;20156;-78
2022/03/29 18:11:01;;;;;;;26.77;5.67;;;;;;;;;;7381493;19;20164;-78
2022/03/29 18:13:27;;;;;;;18.77;5.63;;;;;;;;;;7390934;19;20182;-78
2022/03/29 18:15:53;;;;;;;27.43;10.63;;;;;;;;;;7371458;19;20144;-78
2022/03/29 18:18:19;;;;;;;29.77;10.90;;;;;;;;;;7393377;19;20617;-77
2022/03/29 18:20:48;;;;;;;18.80;5.77;;;;;;;;;;7384782;19;22502;-78
2022/03/29 18:23:15;;;;;;;32.57;6.77;;;;;;;;;;7381271;19;20159;-78
2022/03/29 18:25:42;;;;;;;27.93;5.37;;;;;;;;;;7367245;19;20173;-79
2022/03/29 18:28:08;;;;;;;25.17;6.83;;;;;;;;;;7375496;19;20128;-79
2022/03/29 18:30:36;;;;;;;22.63;6.27;;;;;;;;;;7395479;19;20150;-78
2022/03/29 18:33:02;;;;;;;32.47;5.53;;;;;;;;;;7389613;19;20172;-78
2022/03/29 18:35:28;;;;;;;19.03;6.50;;;;;;;;;;7389864;19;20125;-78
2022/03/29 18:37:55;;;;;;;20.73;5.60;;;;;;;;;;7388805;19;20163;-78
2022/03/29 18:40:22;;;;;;;15.13;4.67;;;;;;;;;;7372717;19;20158;-78
2022/03/29 18:42:49;;;;;;;27.83;6.97;;;;;;;;;;7372064;19;20212;-78
2022/03/29 18:45:15;;;;;;;19.60;5.97;;;;;;;;;;7368563;19;20125;-77
2022/03/29 18:47:41;;;;;;;26.47;6.23;;;;;;;;;;7377871;19;20498;-79
2022/03/29 18:50:09;;;;;;;18.50;5.43;;;;;;;;;;7387463;19;20535;-78
2022/03/29 18:52:36;;;;;;;18.77;5.17;;;;;;;;;;7384604;19;20186;-77
2022/03/29 18:55:02;;;;;;;24.50;5.67;;;;;;;;;;7379549;19;20151;-78
2022/03/29 18:57:28;;;;;;;25.47;7.00;;;;;;;;;;7388318;19;20131;-78
2022/03/29 18:59:54;;;;;;;26.17;6.10;;;;;;;;;;7388124;19;20514;-78
2022/03/29 19:02:20;;;;;;;24.67;6.77;;;;;;;;;;7382405;19;20172;-78
2022/03/29 19:04:46;;;;;;;27.23;6.67;;;;;;;;;;7384533;19;20136;-78
2022/03/29 19:07:15;;;;;;;24.67;6.10;;;;;;;;;;7389853;19;20125;-78
2022/03/29 19:09:41;;;;;;;25.53;6.83;;;;;;;;;;7389300;19;20165;-77
2022/03/29 19:12:07;;;;;;;30.47;6.27;;;;;;;;;;7383585;19;20184;-78
2022/03/29 19:14:33;;;;;;;25.10;7.03;;;;;;;;;;7386138;19;20157;-78
2022/03/29 19:16:59;;;;;;;33.63;6.23;;;;;;;;;;7387295;19;20152;-78
2022/03/29 19:19:29;;;;;;;21.30;6.07;;;;;;;;;;7384693;19;20153;-78
2022/03/29 19:21:56;;;;;;;27.20;6.80;;;;;;;;;;7383575;19;20172;-78
2022/03/29 19:24:23;;;;;;;22.23;7.20;;;;;;;;;;7376318;19;20151;-78
2022/03/29 19:26:50;;;;;;;22.47;7.00;;;;;;;;;;7382441;19;20160;-77
2022/03/29 19:29:17;;;;;;;23.07;6.27;;;;;;;;;;7385789;19;20200;-78
2022/03/29 19:31:44;;;;;;;32.07;8.23;;;;;;;;;;7387134;19;20566;-77
2022/03/29 19:34:11;;;;;;;27.40;6.70;;;;;;;;;;7380511;19;20503;-78
2022/03/29 19:36:37;;;;;;;24.40;6.70;;;;;;;;;;7378603;19;20137;-78
2022/03/29 19:39:33;;;;;;;26.43;6.63;;;;;;;;;;7379632;19;20129;-78
2022/03/29 19:42:03;;;;;;;27.30;6.50;;;;;;;;;;7383730;19;20173;-78
2022/03/29 19:44:29;;;;;;;20.60;7.10;;;;;;;;;;7388270;19;20586;-78
2022/03/29 19:46:55;;;;;;;21.37;6.30;;;;;;;;;;7388390;19;20495;-78
2022/03/29 19:49:21;;;;;;;26.10;6.53;;;;;;;;;;7385295;19;20582;-78
2022/03/29 19:51:47;;;;;;;25.10;7.03;;;;;;;;;;7390544;19;20182;-78
2022/03/29 19:54:13;;;;;;;23.00;5.00;;;;;;;;;;7388516;19;20152;-78
2022/03/29 19:56:39;;;;;;;20.80;5.40;;;;;;;;;;7390109;19;20197;-78
2022/03/29 19:59:09;;;;;;;20.33;6.23;;;;;;;;;;7394662;19;20117;-78
2022/03/29 20:01:36;;;;;;;21.67;6.67;;;;;;;;;;7389144;19;20615;-78
2022/03/29 20:04:02;;;;;;;24.67;5.80;;;;;;;;;;7394437;19;20120;-78
2022/03/29 20:06:28;;;;;;;19.80;6.93;;;;;;;;;;7389323;19;20152;-78
2022/03/29 20:08:54;;;;;;;21.27;6.30;;;;;;;;;;7388099;19;20163;-78
2022/03/29 20:11:20;;;;;;;26.20;6.43;;;;;;;;;;7388261;19;20196;-78
2022/03/29 20:13:48;;;;;;;26.43;6.87;;;;;;;;;;7385292;19;20133;-77
2022/03/29 20:16:14;;;;;;;21.20;6.37;;;;;;;;;;7390113;19;20177;-78
2022/03/29 20:18:40;;;;;;;24.07;6.13;;;;;;;;;;7388731;19;20125;-78
2022/03/29 20:21:06;;;;;;;24.90;6.80;;;;;;;;;;7393416;19;20125;-77
2022/03/29 20:23:33;;;;;;;31.73;7.87;;;;;;;;;;7386995;19;20183;-77
2022/03/29 20:25:59;;;;;;;32.73;7.37;;;;;;;;;;7391223;19;20140;-78
2022/03/29 20:28:27;;;;;;;30.03;8.40;;;;;;;;;;7387664;19;20144;-78
2022/03/29 20:30:53;;;;;;;21.73;7.37;;;;;;;;;;7383487;19;20140;-78
2022/03/29 20:33:19;;;;;;;22.87;6.67;;;;;;;;;;7390456;19;20186;-78
2022/03/29 20:35:45;;;;;;;24.93;6.40;;;;;;;;;;7390198;19;20507;-78
2022/03/29 20:38:11;;;;;;;19.23;6.63;;;;;;;;;;7393485;19;20136;-78
2022/03/29 20:40:38;;;;;;;19.90;7.60;;;;;;;;;;7389679;19;20149;-77
2022/03/29 20:43:05;;;;;;;21.70;7.03;;;;;;;;;;7387278;19;20512;-77
2022/03/29 20:45:31;;;;;;;22.43;7.27;;;;;;;;;;7392775;19;20132;-77
2022/03/29 20:47:57;;;;;;;19.33;7.33;;;;;;;;;;7390608;19;20155;-78
2022/03/29 20:50:23;;;;;;;20.80;7.00;;;;;;;;;;7390675;19;20125;-78
2022/03/29 20:52:49;;;;;;;20.40;7.20;;;;;;;;;;7387716;19;20180;-78
2022/03/29 20:55:15;;;;;;;24.10;7.90;;;;;;;;;;7389446;19;20121;-77
2022/03/29 20:57:41;;;;;;;22.80;8.70;;;;;;;;;;7391575;19;20148;-77
2022/03/29 21:00:08;;;;;;;22.90;6.87;;;;;;;;;;7389277;19;20157;-78
2022/03/29 21:02:37;;;;;;;21.93;7.37;;;;;;;;;;7385357;19;20160;-77
2022/03/29 21:05:04;;;;;;;24.87;7.00;;;;;;;;;;7382906;19;20144;-77
2022/03/29 21:07:31;;;;;;;24.03;7.20;;;;;;;;;;7389072;19;20208;-78
2022/03/29 21:09:57;;;;;;;22.27;7.40;;;;;;;;;;7376893;19;20144;-77
2022/03/29 21:12:23;;;;;;;19.10;6.27;;;;;;;;;;7378418;19;20626;-77
2022/03/29 21:14:49;;;;;;;20.10;6.70;;;;;;;;;;7384621;19;20148;-78
2022/03/29 21:17:15;;;;;;;23.47;7.30;;;;;;;;;;7375415;19;20149;-77
2022/03/29 21:19:41;;;;;;;18.90;6.60;;;;;;;;;;7387496;19;20231;-77
2022/03/29 21:22:07;;;;;;;23.20;6.50;;;;;;;;;;7376924;19;20153;-78
2022/03/29 21:24:34;;;;;;;20.17;6.80;;;;;;;;;;7384568;19;20149;-77
2022/03/29 21:27:00;;;;;;;22.37;7.03;;;;;;;;;;7375226;19;20147;-78
2022/03/29 21:29:26;;;;;;;24.07;6.63;;;;;;;;;;7391336;19;20749;-78
2022/03/29 21:31:52;;;;;;;20.60;6.50;;;;;;;;;;7381357;19;20185;-78
2022/03/29 21:34:18;;;;;;;23.20;7.30;;;;;;;;;;7377852;19;20642;-77
2022/03/29 21:36:45;;;;;;;19.97;6.97;;;;;;;;;;7378980;19;20157;-78
2022/03/29 21:39:11;;;;;;;22.50;7.97;;;;;;;;;;7405358;19;20130;-77
2022/03/29 21:41:37;;;;;;;22.47;7.53;;;;;;;;;;7405110;19;20259;-77
2022/03/29 21:44:04;;;;;;;21.50;8.47;;;;;;;;;;7404880;19;20149;-78
2022/03/29 21:46:30;;;;;;;15.63;6.23;;;;;;;;;;7402814;19;20131;-77
2022/03/29 21:48:55;;;;;;;22.17;7.03;;;;;;;;;;7396626;19;20113;-78
2022/03/29 21:51:21;;;;;;;17.47;7.53;;;;;;;;;;7385990;19;22255;-78
2022/03/29 21:53:47;;;;;;;25.10;7.50;;;;;;;;;;7381508;19;20132;-78
2022/03/29 21:56:13;;;;;;;24.47;7.03;;;;;;;;;;7424891;19;20112;-79
2022/03/29 21:58:39;;;;;;;23.20;8.10;;;;;;;;;;7419233;19;20149;-79
2022/03/29 22:01:05;;;;;;;21.07;6.60;;;;;;;;;;7418924;19;20132;-78
2022/03/29 22:03:32;;;;;;;26.80;7.87;;;;;;;;;;7419776;19;20144;-78
2022/03/29 22:05:58;;;;;;;26.83;8.13;;;;;;;;;;7384221;19;20227;-77
2022/03/29 22:08:24;;;;;;;27.10;8.43;;;;;;;;;;7374413;19;20178;-77
2022/03/29 22:10:50;;;;;;;24.33;7.30;;;;;;;;;;7373329;19;20170;-77
2022/03/29 22:13:16;;;;;;;28.23;8.30;;;;;;;;;;7382659;19;20619;-77
2022/03/29 22:15:42;;;;;;;22.00;7.50;;;;;;;;;;7389024;19;20508;-77
2022/03/29 22:18:11;;;;;;;17.67;7.93;;;;;;;;;;7387389;19;21865;-77
2022/03/29 22:20:39;;;;;;;21.87;7.70;;;;;;;;;;7389717;19;20201;-77
2022/03/29 22:23:05;;;;;;;20.13;7.97;;;;;;;;;;7385890;19;20176;-77
2022/03/29 22:25:31;;;;;;;23.17;6.63;;;;;;;;;;7389390;19;20692;-77
2022/03/29 22:27:58;;;;;;;29.20;7.20;;;;;;;;;;7387471;19;20132;-77
2022/03/29 22:30:24;;;;;;;18.30;7.60;;;;;;;;;;7383996;19;20153;-77
2022/03/29 22:32:50;;;;;;;18.50;6.23;;;;;;;;;;7382848;19;20144;-77
2022/03/29 22:35:17;;;;;;;22.67;7.03;;;;;;;;;;7387296;19;20148;-77
2022/03/29 22:37:54;;;;;;;24.20;8.23;;;;;;;;;;7382504;19;20149;-77
2022/03/29 22:40:21;;;;;;;20.70;7.57;;;;;;;;;;7382236;19;20444;-77
2022/03/29 22:42:47;;;;;;;19.97;7.90;;;;;;;;;;7377998;19;20149;-77
2022/03/29 22:45:14;;;;;;;28.13;7.77;;;;;;;;;;7388259;19;20129;-77
2022/03/29 22:47:40;;;;;;;20.20;7.90;;;;;;;;;;7385736;19;20129;-77
2022/03/29 22:50:06;;;;;;;20.63;8.13;;;;;;;;;;7386113;19;20736;-77
2022/03/29 22:52:34;;;;;;;28.93;7.47;;;;;;;;;;7385241;19;20152;-77
2022/03/29 22:55:00;;;;;;;18.70;7.43;;;;;;;;;;7386558;19;20130;-77
2022/03/29 22:57:26;;;;;;;19.13;6.90;;;;;;;;;;7387599;19;20722;-77
2022/03/29 22:59:53;;;;;;;21.10;8.00;;;;;;;;;;7387814;19;20137;-78
2022/03/29 23:02:20;;;;;;;21.17;7.67;;;;;;;;;;7385830;19;20226;-77
2022/03/29 23:04:46;;;;;;;18.77;6.90;;;;;;;;;;7384641;19;20634;-77
2022/03/29 23:07:12;;;;;;;21.97;7.73;;;;;;;;;;7386369;19;20121;-77
2022/03/29 23:09:39;;;;;;;23.30;7.57;;;;;;;;;;7388969;19;20151;-77
2022/03/29 23:12:06;;;;;;;18.97;7.17;;;;;;;;;;7386973;19;20180;-77
2022/03/29 23:14:32;;;;;;;30.43;7.30;;;;;;;;;;7388499;19;20117;-77
2022/03/29 23:16:58;;;;;;;22.27;7.80;;;;;;;;;;7387259;19;20152;-77
2022/03/29 23:19:26;;;;;;;17.40;6.70;;;;;;;;;;7389748;19;20632;-77
2022/03/29 23:21:52;;;;;;;19.40;7.40;;;;;;;;;;7388792;19;20220;-78
2022/03/29 23:24:18;;;;;;;20.93;7.37;;;;;;;;;;7386573;19;20133;-77
2022/03/29 23:26:44;;;;;;;22.70;7.87;;;;;;;;;;7386570;19;20153;-77
2022/03/29 23:29:10;;;;;;;17.13;7.73;;;;;;;;;;7383619;19;20640;-77
2022/03/29 23:31:36;;;;;;;19.37;6.97;;;;;;;;;;7385748;19;20184;-77
2022/03/29 23:34:02;;;;;;;21.37;8.27;;;;;;;;;;7384138;19;20145;-77
2022/03/29 23:36:28;;;;;;;20.97;6.97;;;;;;;;;;7386526;19;20164;-77
2022/03/29 23:38:54;;;;;;;23.03;8.93;;;;;;;;;;7384031;19;20144;-77
2022/03/29 23:41:20;;;;;;;19.33;8.03;;;;;;;;;;7387455;19;20129;-77
2022/03/29 23:43:46;;;;;;;18.23;7.10;;;;;;;;;;7384216;19;20124;-77
2022/03/29 23:46:12;;;;;;;20.43;7.33;;;;;;;;;;7385785;19;20125;-77
2022/03/29 23:48:38;;;;;;;19.87;7.77;;;;;;;;;;7384112;19;20179;-77
2022/03/29 23:51:04;;;;;;;19.27;6.97;;;;;;;;;;7383612;19;20498;-77
2022/03/29 23:53:30;;;;;;;24.47;7.67;;;;;;;;;;7384129;19;20618;-77
2022/03/29 23:55:57;;;;;;;26.03;8.50;;;;;;;;;;7383125;19;20153;-77
2022/03/29 23:58:23;;;;;;;20.83;7.43;;;;;;;;;;7386111;19;20136;-77
